LiveATC.Net - Listen to live air traffic control over the Internet!


ICAO: O85  IATA: O85   Airport: Benton Field Airport
City: Redding   State/Province: California
Country: United States   Continent: North America
KRDD METAR Weather: KRDD 240453Z 00000KT 9SM SCT075 13/12 A3005 RMK AO2 SLP173 T01280122
O85 Flight Activity (FlightAware)
O85 CTAF/KRDD Twr/ZOA
Feed Status: DOWN
Last heard on: 2017-11-23 11:46:02 (0 days 17 hours 56 minutes ago)
O85 CTAF/KRDD Twr/ZOA Audio Archives
FacilityFrequency
Benton CTAF (on priority)122.800
Oakland Center (Sector 42 Low)132.200
Redding Tower119.800

Sponsored by: Hillside Aviation - Benton Air Center
O85 Weather Station

NOTICE

Unauthorized use prohibited. See LiveATC.net Terms of Service


Find LiveATC Audio Streams


Airport/ARTCC Code

Frequency Search
(e.g., 124.400, 128.75)
Site-wide search
 


Browse LiveATC Feeds
LiveATC Coverage Map
Top 50 LiveATC Feeds
Bad Weather Areas

LiveATC FAQ
Offer a LiveATC Feed
Contact LiveATC.net
Press Inquiries

LiveATC on iPhone
LiveATC on Android

Windows Phone
Windows 8/10

LiveATC Mobile
(Mobile browser)

ATC Audio Archives
Interesting Recordings

LiveATC Forums


Home Page
About LiveATC.net
Make a Donation
Terms of Use
Privacy Policy

Canadian Air Freqs

AIRMETs/SIGMETs

FAA Airport Status
Nat'l Airspace Status
Arrival Demand Charts


Server Software By:
Icecast.org
Liquidsoap